Time;durP1;ratioP1;P1;durP2;ratioP2;P2;SDS_P1;SDS_P2;PMS_P1;PMS_P2;Temp;Humidity;BMP_temperature;BMP_pressure;BME280_temperature;BME280_humidity;BME280_pressure;Samples;Min_cycle;Max_cycle;Signal;HPM_P1;HPM_P2
2024/01/03 00:01:13;;;;;;;4.23;1.10;;;11.90;99.90;;;;;;5077694;28;20964;-75
2024/01/03 00:03:38;;;;;;;3.63;1.30;;;11.90;99.90;;;;;;5077275;28;20833;-74
2024/01/03 00:06:05;;;;;;;3.63;1.33;;;11.90;99.90;;;;;;5077315;28;20181;-75
2024/01/03 00:08:34;;;;;;;2.90;1.03;;;12.00;99.90;;;;;;5077625;28;20198;-75
2024/01/03 00:11:01;;;;;;;1.87;1.30;;;12.00;99.90;;;;;;5077257;28;20412;-75
2024/01/03 00:13:30;;;;;;;3.80;1.10;;;12.00;99.90;;;;;;5055705;28;20480;-74
2024/01/03 00:16:19;;;;;;;2.43;1.17;;;11.90;99.90;;;;;;5063166;28;20412;-76
2024/01/03 00:18:54;;;;;;;4.50;1.70;;;11.90;99.90;;;;;;5074330;28;20459;-74
2024/01/03 00:21:25;;;;;;;7.83;2.07;;;11.80;99.90;;;;;;5074346;28;20419;-75
2024/01/03 00:23:55;;;;;;;8.27;1.67;;;11.80;99.90;;;;;;5074342;28;20420;-77
2024/01/03 00:26:24;;;;;;;5.80;1.40;;;11.80;99.90;;;;;;5074781;28;20473;-77
2024/01/03 00:28:50;;;;;;;4.90;1.83;;;11.80;99.90;;;;;;5075910;28;20415;-76
2024/01/03 00:31:19;;;;;;;7.70;1.60;;;11.70;99.90;;;;;;5075790;28;20421;-76
2024/01/03 00:33:44;;;;;;;8.10;1.87;;;11.60;99.90;;;;;;5075711;28;20182;-77
2024/01/03 00:36:15;;;;;;;7.03;2.10;;;11.60;99.90;;;;;;5074566;28;20421;-76
2024/01/03 00:38:42;;;;;;;2.90;1.37;;;11.60;99.90;;;;;;5075111;28;20202;-77
2024/01/03 00:41:11;;;;;;;6.83;1.30;;;11.60;99.90;;;;;;5075418;28;20416;-76
2024/01/03 00:43:37;;;;;;;3.17;1.20;;;11.60;99.90;;;;;;5073557;28;20938;-74
2024/01/03 00:46:03;;;;;;;6.03;1.53;;;11.50;99.90;;;;;;5073772;28;20495;-74
2024/01/03 00:48:29;;;;;;;1.53;0.83;;;11.50;99.90;;;;;;5073888;28;20201;-75
2024/01/03 00:50:55;;;;;;;3.90;1.20;;;11.40;99.90;;;;;;5075116;28;20857;-77
2024/01/03 00:53:20;;;;;;;6.63;1.10;;;11.40;99.90;;;;;;5057216;28;20496;-76
2024/01/03 00:55:46;;;;;;;4.13;1.33;;;11.50;99.90;;;;;;5058441;28;20428;-76
2024/01/03 00:58:12;;;;;;;5.30;1.20;;;11.50;99.90;;;;;;5074193;28;20277;-77
2024/01/03 01:00:38;;;;;;;5.93;1.07;;;11.60;99.90;;;;;;5073957;28;20198;-75
2024/01/03 01:03:05;;;;;;;2.43;1.17;;;11.70;99.90;;;;;;5073969;28;20447;-77
2024/01/03 01:05:31;;;;;;;1.53;1.13;;;11.70;99.90;;;;;;5074008;28;20174;-76
2024/01/03 01:07:57;;;;;;;3.53;1.37;;;11.60;99.90;;;;;;5074299;28;20499;-76
2024/01/03 01:10:22;;;;;;;3.20;0.90;;;11.60;99.90;;;;;;5072867;28;20174;-76
2024/01/03 01:12:48;;;;;;;7.07;1.13;;;11.60;99.90;;;;;;5072837;28;20217;-77
2024/01/03 01:15:13;;;;;;;2.43;0.90;;;11.60;99.90;;;;;;5074478;28;20253;-77
2024/01/03 01:17:39;;;;;;;5.20;1.00;;;11.70;99.90;;;;;;5074182;28;20195;-77
2024/01/03 01:20:05;;;;;;;5.93;1.07;;;11.80;99.90;;;;;;5074291;28;20633;-76
2024/01/03 01:22:30;;;;;;;2.40;1.40;;;11.70;99.90;;;;;;5073789;28;20186;-76
2024/01/03 01:24:56;;;;;;;3.17;1.13;;;11.70;99.90;;;;;;5073588;28;20751;-76
2024/01/03 01:27:21;;;;;;;1.57;1.00;;;11.60;99.90;;;;;;5074735;28;20174;-76
2024/01/03 01:29:47;;;;;;;3.20;0.97;;;11.50;99.90;;;;;;5074744;28;20220;-76
2024/01/03 01:32:13;;;;;;;1.23;0.83;;;11.40;99.90;;;;;;5074184;28;20181;-76
2024/01/03 01:34:38;;;;;;;3.33;1.37;;;11.40;99.90;;;;;;5074756;28;20405;-76
2024/01/03 01:37:04;;;;;;;2.50;0.70;;;11.30;99.90;;;;;;5072473;28;20529;-74
2024/01/03 01:39:30;;;;;;;5.17;1.07;;;11.30;99.90;;;;;;5072788;28;20205;-74
2024/01/03 01:41:55;;;;;;;5.03;1.10;;;11.30;99.90;;;;;;5072390;28;20177;-74
2024/01/03 01:44:21;;;;;;;7.47;1.13;;;11.30;99.90;;;;;;5072547;28;20190;-74
2024/01/03 01:46:47;;;;;;;2.10;1.10;;;11.20;99.90;;;;;;5072712;28;20643;-74
2024/01/03 01:49:17;;;;;;;2.50;0.90;;;11.20;99.90;;;;;;5072740;28;20443;-74
2024/01/03 01:51:44;;;;;;;4.57;2.27;;;11.30;99.90;;;;;;5072372;28;20257;-74
2024/01/03 01:54:11;;;;;;;2.43;1.10;;;11.20;99.90;;;;;;5071013;28;20436;-74
2024/01/03 01:56:38;;;;;;;1.17;0.83;;;11.10;99.90;;;;;;5072496;28;20785;-74
2024/01/03 01:59:05;;;;;;;2.80;1.30;;;11.10;99.90;;;;;;5072445;28;21097;-75
2024/01/03 02:01:31;;;;;;;5.47;1.20;;;11.00;99.90;;;;;;5070777;28;20775;-73
2024/01/03 02:03:57;;;;;;;5.40;1.20;;;11.00;99.90;;;;;;5052052;28;20452;-74
2024/01/03 02:06:23;;;;;;;4.20;0.90;;;11.00;99.90;;;;;;5058951;28;20412;-74
2024/01/03 02:08:49;;;;;;;3.23;1.17;;;11.00;99.90;;;;;;5072415;28;20930;-74
2024/01/03 02:11:14;;;;;;;9.80;1.40;;;11.00;99.90;;;;;;5071003;28;20176;-74
2024/01/03 02:13:44;;;;;;;1.30;1.20;;;11.00;99.90;;;;;;5071928;28;20292;-74
2024/01/03 02:16:09;;;;;;;4.07;1.20;;;11.00;99.90;;;;;;5073318;28;20545;-75
2024/01/03 02:18:35;;;;;;;4.40;1.10;;;11.00;99.90;;;;;;5073574;28;20452;-76
2024/01/03 02:21:02;;;;;;;2.70;1.30;;;11.00;99.90;;;;;;5073391;28;20166;-76
2024/01/03 02:23:27;;;;;;;3.10;1.43;;;11.00;99.90;;;;;;5073317;28;20428;-77
2024/01/03 02:25:53;;;;;;;2.00;1.50;;;11.10;99.90;;;;;;5073442;28;20911;-76
2024/01/03 02:28:18;;;;;;;2.40;1.20;;;11.00;99.90;;;;;;5072303;28;20166;-76
2024/01/03 02:30:44;;;;;;;2.80;0.93;;;11.00;99.90;;;;;;5073342;28;20174;-76
2024/01/03 02:33:11;;;;;;;5.40;1.10;;;11.00;99.90;;;;;;5072913;28;20194;-76
2024/01/03 02:35:37;;;;;;;1.57;0.70;;;10.90;99.90;;;;;;5071115;28;20784;-73
2024/01/03 02:38:02;;;;;;;2.50;0.93;;;10.90;99.90;;;;;;5070467;28;20463;-74
2024/01/03 02:40:28;;;;;;;4.10;1.00;;;11.00;99.90;;;;;;5071892;28;20443;-74
2024/01/03 02:42:53;;;;;;;3.20;1.00;;;10.90;99.90;;;;;;5071559;28;20194;-74
2024/01/03 02:45:19;;;;;;;3.43;1.30;;;10.90;99.90;;;;;;5071807;28;20170;-74
2024/01/03 02:47:44;;;;;;;2.47;1.00;;;10.90;99.90;;;;;;5071677;28;20174;-75
2024/01/03 02:50:10;;;;;;;3.17;1.23;;;10.90;99.90;;;;;;5071848;28;20647;-75
2024/01/03 02:52:35;;;;;;;4.10;1.00;;;11.00;99.90;;;;;;5071310;28;20206;-74
2024/01/03 02:55:01;;;;;;;2.70;0.87;;;10.90;99.90;;;;;;5071572;28;20162;-74
2024/01/03 02:57:27;;;;;;;2.60;1.00;;;10.90;99.90;;;;;;5071640;28;20206;-74
2024/01/03 02:59:53;;;;;;;2.80;0.80;;;10.90;99.90;;;;;;5071818;28;20197;-76
2024/01/03 03:02:18;;;;;;;6.07;1.20;;;10.90;99.90;;;;;;5071142;28;20522;-76
2024/01/03 03:04:44;;;;;;;2.60;1.10;;;10.90;99.90;;;;;;5072545;28;20170;-76
2024/01/03 03:07:10;;;;;;;4.13;1.10;;;10.90;99.90;;;;;;5072725;28;20209;-76
2024/01/03 03:09:35;;;;;;;4.20;1.10;;;10.90;99.90;;;;;;5071432;28;20553;-76
2024/01/03 03:12:01;;;;;;;2.23;0.90;;;10.90;99.90;;;;;;5071048;28;20308;-75
2024/01/03 03:14:26;;;;;;;3.60;1.00;;;10.90;99.90;;;;;;5071293;28;20239;-75
2024/01/03 03:16:52;;;;;;;4.40;1.10;;;10.80;99.90;;;;;;5071466;28;20174;-74
2024/01/03 03:19:17;;;;;;;3.50;0.93;;;10.70;99.90;;;;;;5071420;28;20190;-74
2024/01/03 03:21:43;;;;;;;2.57;1.00;;;10.60;99.90;;;;;;5071344;28;20173;-74
2024/01/03 03:24:08;;;;;;;3.70;0.90;;;10.60;99.90;;;;;;5071610;28;20208;-76
2024/01/03 03:26:34;;;;;;;2.40;1.10;;;10.60;99.90;;;;;;5072694;28;20638;-76
2024/01/03 03:29:00;;;;;;;7.73;1.00;;;10.50;99.90;;;;;;5071997;28;20407;-76
2024/01/03 03:31:25;;;;;;;1.90;0.90;;;10.40;99.90;;;;;;5072318;28;20245;-77
2024/01/03 03:33:50;;;;;;;4.60;1.20;;;10.40;99.90;;;;;;5072391;28;20190;-75
2024/01/03 03:36:16;;;;;;;6.00;1.47;;;10.30;99.90;;;;;;5073724;28;20174;-76
2024/01/03 03:38:42;;;;;;;5.77;1.60;;;10.30;99.90;;;;;;5075440;28;20565;-76
2024/01/03 03:41:12;;;;;;;2.93;1.67;;;10.40;99.90;;;;;;5074786;28;20158;-76
2024/01/03 03:43:39;;;;;;;7.87;1.30;;;10.40;99.90;;;;;;5073911;28;20197;-76
2024/01/03 03:46:08;;;;;;;8.93;1.53;;;10.40;99.90;;;;;;5072739;28;20412;-74
2024/01/03 03:48:34;;;;;;;5.57;1.30;;;10.30;99.90;;;;;;5074491;28;20443;-74
2024/01/03 03:51:00;;;;;;;3.13;1.53;;;10.40;99.90;;;;;;5075017;28;20443;-74
2024/01/03 03:53:26;;;;;;;11.20;1.60;;;10.50;99.90;;;;;;5074510;28;20202;-74
2024/01/03 03:55:51;;;;;;;4.43;1.70;;;10.50;99.90;;;;;;5074835;28;20784;-74
2024/01/03 03:58:17;;;;;;;3.27;1.37;;;10.50;99.90;;;;;;5073408;28;20190;-74
2024/01/03 04:00:42;;;;;;;5.63;1.60;;;10.60;99.90;;;;;;5074374;28;20253;-76
2024/01/03 04:03:08;;;;;;;3.20;1.20;;;10.50;99.90;;;;;;5073616;28;20614;-75
2024/01/03 04:05:35;;;;;;;3.93;2.30;;;10.40;99.90;;;;;;5073824;28;20559;-75
2024/01/03 04:08:01;;;;;;;2.50;1.53;;;10.50;99.90;;;;;;5074911;28;20791;-76
2024/01/03 04:10:27;;;;;;;6.63;1.20;;;10.50;99.90;;;;;;5075091;28;20409;-76
2024/01/03 04:12:52;;;;;;;4.13;1.47;;;10.50;99.90;;;;;;5074440;28;20248;-76
2024/01/03 04:15:19;;;;;;;4.30;0.70;;;10.50;99.90;;;;;;5073723;28;20178;-75
2024/01/03 04:17:44;;;;;;;2.03;1.13;;;10.50;99.90;;;;;;5074766;28;20412;-76
2024/01/03 04:20:10;;;;;;;11.17;1.40;;;10.50;99.90;;;;;;5074434;28;20404;-76
2024/01/03 04:22:38;;;;;;;4.90;1.27;;;10.40;99.90;;;;;;5074329;28;20194;-76
2024/01/03 04:25:03;;;;;;;5.13;1.67;;;10.40;99.90;;;;;;5074804;28;20393;-76
2024/01/03 04:27:29;;;;;;;5.43;1.70;;;10.30;99.90;;;;;;5074657;28;20500;-76
2024/01/03 04:29:54;;;;;;;1.23;1.00;;;10.30;99.90;;;;;;5074917;28;20416;-76
2024/01/03 04:32:20;;;;;;;4.00;1.50;;;10.30;99.90;;;;;;5074641;28;20170;-76
2024/01/03 04:34:45;;;;;;;2.93;1.37;;;10.40;99.90;;;;;;5073339;28;20185;-76
2024/01/03 04:37:11;;;;;;;5.27;1.40;;;10.30;99.90;;;;;;5074619;28;20707;-76
2024/01/03 04:39:36;;;;;;;7.03;1.63;;;10.30;99.90;;;;;;5074596;28;20206;-76
2024/01/03 04:42:02;;;;;;;6.77;1.30;;;10.40;99.90;;;;;;5074318;28;20171;-74
2024/01/03 04:44:28;;;;;;;3.60;1.03;;;10.40;99.90;;;;;;5073112;28;20252;-77
2024/01/03 04:46:53;;;;;;;4.20;1.27;;;10.40;99.90;;;;;;5074518;28;20213;-76
2024/01/03 04:49:19;;;;;;;6.63;1.63;;;10.40;99.90;;;;;;5074268;28;20171;-77
2024/01/03 04:51:44;;;;;;;4.60;1.47;;;10.40;99.90;;;;;;5072848;28;20280;-76
2024/01/03 04:54:10;;;;;;;8.93;1.90;;;10.50;99.90;;;;;;5073902;28;20194;-77
2024/01/03 04:56:35;;;;;;;5.67;1.40;;;10.60;99.90;;;;;;5074162;28;20680;-77
2024/01/03 04:59:03;;;;;;;3.60;1.43;;;10.60;99.90;;;;;;5073748;28;20208;-77
2024/01/03 05:01:28;;;;;;;8.10;2.00;;;10.60;99.90;;;;;;5074202;28;20705;-77
2024/01/03 05:03:54;;;;;;;3.80;1.70;;;10.70;99.90;;;;;;5073870;28;20527;-76
2024/01/03 05:06:20;;;;;;;3.53;1.63;;;10.70;99.90;;;;;;5073866;28;20201;-76
2024/01/03 05:08:46;;;;;;;3.37;1.83;;;10.70;99.90;;;;;;5074070;28;20181;-76
2024/01/03 05:11:11;;;;;;;4.67;1.37;;;10.80;99.90;;;;;;5072720;28;20923;-76
2024/01/03 05:13:37;;;;;;;3.30;1.80;;;10.70;99.90;;;;;;5073748;28;20190;-76
2024/01/03 05:16:02;;;;;;;5.53;2.60;;;10.70;99.90;;;;;;5072573;28;20178;-74
2024/01/03 05:18:28;;;;;;;5.03;1.90;;;10.70;99.90;;;;;;5073144;28;20190;-74
2024/01/03 05:20:53;;;;;;;7.60;1.70;;;10.70;99.90;;;;;;5073184;28;20178;-74
2024/01/03 05:23:19;;;;;;;2.40;1.10;;;10.80;99.90;;;;;;5073056;28;20193;-74
2024/01/03 05:25:45;;;;;;;9.27;1.30;;;10.70;99.90;;;;;;5072932;28;20186;-74
2024/01/03 05:28:10;;;;;;;3.40;1.57;;;10.70;99.90;;;;;;5073270;28;20170;-74
2024/01/03 05:30:36;;;;;;;4.17;1.60;;;10.70;99.90;;;;;;5073036;28;20181;-74
2024/01/03 05:33:01;;;;;;;6.20;1.50;;;10.70;99.90;;;;;;5071586;28;20205;-74
2024/01/03 05:35:27;;;;;;;4.73;1.37;;;10.70;99.90;;;;;;5071568;28;20185;-74
2024/01/03 05:37:52;;;;;;;5.53;1.63;;;10.70;99.90;;;;;;5072917;28;20603;-74
2024/01/03 05:40:18;;;;;;;7.27;1.47;;;10.70;99.90;;;;;;5071599;28;20171;-74
2024/01/03 05:42:44;;;;;;;11.43;2.40;;;10.70;99.90;;;;;;5072566;28;20190;-74
2024/01/03 05:45:09;;;;;;;11.07;1.87;;;10.70;99.90;;;;;;5072747;28;20592;-74
2024/01/03 05:47:35;;;;;;;5.73;1.83;;;10.70;99.90;;;;;;5072751;28;20216;-75
2024/01/03 05:50:00;;;;;;;3.73;1.87;;;10.70;99.90;;;;;;5072626;28;20225;-74
2024/01/03 05:52:26;;;;;;;8.00;1.57;;;10.60;99.90;;;;;;5072413;28;20225;-74
2024/01/03 05:54:51;;;;;;;7.43;1.83;;;10.60;99.90;;;;;;5072450;28;20181;-74
2024/01/03 05:57:17;;;;;;;4.70;1.43;;;10.60;99.90;;;;;;5071287;28;20166;-73
2024/01/03 05:59:43;;;;;;;8.93;2.03;;;10.60;99.90;;;;;;5072489;28;20202;-74
2024/01/03 06:02:08;;;;;;;3.77;1.80;;;10.60;99.90;;;;;;5072283;28;20985;-74
2024/01/03 06:04:34;;;;;;;6.83;2.17;;;10.70;99.90;;;;;;5072318;28;20545;-75
2024/01/03 06:06:59;;;;;;;8.73;1.43;;;10.70;99.90;;;;;;5072282;28;20201;-74
2024/01/03 06:09:25;;;;;;;14.80;3.40;;;10.70;99.90;;;;;;5070478;28;20178;-75
2024/01/03 06:11:50;;;;;;;14.20;2.50;;;10.70;99.90;;;;;;5072033;28;20174;-74
2024/01/03 06:14:16;;;;;;;10.23;1.93;;;10.70;99.90;;;;;;5071962;28;20240;-75
2024/01/03 06:16:41;;;;;;;6.40;2.10;;;10.70;99.90;;;;;;5072148;28;20223;-74
2024/01/03 06:19:07;;;;;;;9.63;2.00;;;10.70;99.90;;;;;;5070837;28;20198;-74
2024/01/03 06:21:32;;;;;;;6.90;1.80;;;10.80;99.90;;;;;;5070826;28;20170;-74
2024/01/03 06:23:58;;;;;;;8.63;1.70;;;10.70;99.90;;;;;;5071722;28;20665;-75
2024/01/03 06:26:28;;;;;;;2.97;1.40;;;10.70;99.90;;;;;;5072066;28;20253;-76
2024/01/03 06:28:54;;;;;;;5.63;1.43;;;10.70;99.90;;;;;;5072422;28;20680;-76
2024/01/03 06:31:21;;;;;;;2.63;1.60;;;10.70;99.90;;;;;;5071069;28;20413;-76
2024/01/03 06:33:47;;;;;;;3.97;2.30;;;10.80;99.90;;;;;;5072112;28;20217;-75
2024/01/03 06:36:13;;;;;;;2.83;2.17;;;10.90;99.90;;;;;;5070654;28;20416;-74
2024/01/03 06:38:39;;;;;;;5.93;1.77;;;10.90;99.90;;;;;;5071880;28;20444;-74
2024/01/03 06:41:04;;;;;;;4.17;1.40;;;11.00;99.90;;;;;;5071883;28;20181;-71
2024/01/03 06:43:30;;;;;;;6.03;1.90;;;11.10;99.90;;;;;;5071807;28;20182;-71
2024/01/03 06:45:55;;;;;;;10.80;2.40;;;11.10;99.90;;;;;;5070308;28;20167;-71
2024/01/03 06:48:21;;;;;;;4.90;1.87;;;11.10;99.90;;;;;;5071838;28;20174;-71
2024/01/03 06:50:47;;;;;;;6.47;2.30;;;11.20;99.90;;;;;;5070449;28;20178;-71
2024/01/03 06:53:13;;;;;;;4.70;1.50;;;11.20;99.90;;;;;;5071031;28;20969;-71
2024/01/03 06:55:38;;;;;;;11.30;1.87;;;11.20;99.90;;;;;;5071567;28;20174;-71
2024/01/03 06:58:04;;;;;;;7.80;1.23;;;11.20;99.90;;;;;;5071589;28;20986;-71
2024/01/03 07:00:29;;;;;;;6.27;1.40;;;11.20;99.90;;;;;;5071559;28;20205;-71
2024/01/03 07:02:55;;;;;;;8.83;1.70;;;11.10;99.90;;;;;;5071403;28;20192;-71
2024/01/03 07:05:21;;;;;;;9.37;1.83;;;11.10;99.90;;;;;;5071429;28;20245;-71
2024/01/03 07:07:46;;;;;;;7.60;1.60;;;11.10;99.90;;;;;;5071583;28;20511;-71
2024/01/03 07:10:12;;;;;;;8.63;2.03;;;11.00;99.90;;;;;;5071765;28;20174;-70
2024/01/03 07:12:38;;;;;;;5.87;1.47;;;11.00;99.90;;;;;;5071432;28;20201;-71
2024/01/03 07:15:07;;;;;;;6.80;1.67;;;10.90;99.90;;;;;;5071584;28;20590;-71
2024/01/03 07:17:32;;;;;;;3.27;1.77;;;10.90;99.90;;;;;;5071574;28;20408;-70
2024/01/03 07:19:58;;;;;;;6.20;1.40;;;10.90;99.90;;;;;;5071405;28;20455;-71
2024/01/03 07:22:23;;;;;;;4.20;2.60;;;11.00;99.90;;;;;;5074483;28;20245;-71
2024/01/03 07:24:49;;;;;;;4.80;1.30;;;11.00;99.90;;;;;;5075459;28;20162;-70
2024/01/03 07:27:15;;;;;;;8.97;2.10;;;11.10;99.90;;;;;;5075464;28;20181;-71
2024/01/03 07:29:41;;;;;;;5.37;1.83;;;11.10;99.90;;;;;;5075423;28;20667;-70
2024/01/03 07:32:07;;;;;;;5.50;1.00;;;11.10;99.90;;;;;;5075176;28;20235;-70
2024/01/03 07:34:32;;;;;;;6.30;1.37;;;11.00;99.90;;;;;;5075115;28;20424;-70
2024/01/03 07:36:58;;;;;;;5.10;1.30;;;11.00;99.90;;;;;;5075256;28;20178;-70
2024/01/03 07:39:24;;;;;;;4.23;1.20;;;11.00;99.90;;;;;;5075214;28;20274;-71
2024/01/03 07:41:50;;;;;;;4.17;1.20;;;11.00;99.90;;;;;;5075080;28;20633;-70
2024/01/03 07:44:15;;;;;;;6.60;1.17;;;11.00;99.90;;;;;;5074829;28;20224;-70
2024/01/03 07:46:41;;;;;;;2.50;1.50;;;11.00;99.90;;;;;;5075324;28;20903;-72
2024/01/03 07:49:07;;;;;;;1.40;1.30;;;11.00;99.90;;;;;;5075149;28;20174;-70
2024/01/03 07:51:38;;;;;;;2.33;1.10;;;11.10;99.90;;;;;;5075006;28;20170;-72
2024/01/03 07:54:04;;;;;;;2.60;1.03;;;11.10;99.90;;;;;;5074700;28;20260;-71
2024/01/03 07:56:29;;;;;;;6.13;1.40;;;11.10;99.90;;;;;;5074932;28;20420;-70
2024/01/03 07:58:55;;;;;;;6.43;1.77;;;11.10;99.90;;;;;;5074765;28;20455;-70
2024/01/03 08:01:21;;;;;;;2.30;1.17;;;11.10;99.90;;;;;;5074561;28;20166;-70
2024/01/03 08:03:47;;;;;;;6.83;1.60;;;11.10;99.90;;;;;;5074154;28;20275;-70
2024/01/03 08:06:19;;;;;;;4.40;1.23;;;11.00;99.90;;;;;;5074557;28;20435;-71
2024/01/03 08:08:45;;;;;;;3.20;1.20;;;11.00;99.90;;;;;;5073525;28;20185;-70
2024/01/03 08:11:11;;;;;;;5.80;1.40;;;11.00;99.90;;;;;;5074581;28;20409;-70
2024/01/03 08:13:37;;;;;;;3.87;1.27;;;11.00;99.90;;;;;;5074338;28;20182;-70
2024/01/03 08:16:04;;;;;;;9.43;2.23;;;11.00;99.90;;;;;;5074331;28;20903;-70
2024/01/03 08:18:29;;;;;;;3.40;1.40;;;11.00;99.90;;;;;;5074337;28;20197;-69
2024/01/03 08:20:54;;;;;;;2.70;1.00;;;11.00;99.90;;;;;;5074266;28;20769;-69
2024/01/03 08:23:20;;;;;;;3.20;1.10;;;11.00;99.90;;;;;;5074168;28;20193;-70
2024/01/03 08:25:46;;;;;;;3.83;1.40;;;11.00;99.90;;;;;;5074102;28;20167;-71
2024/01/03 08:28:11;;;;;;;5.80;2.27;;;11.10;99.90;;;;;;5074404;28;20515;-71
2024/01/03 08:30:37;;;;;;;5.20;2.70;;;11.20;99.90;;;;;;5074266;28;20249;-70
2024/01/03 08:33:03;;;;;;;4.80;2.83;;;11.30;99.90;;;;;;5073172;28;20614;-69
2024/01/03 08:35:28;;;;;;;3.97;1.07;;;11.30;99.90;;;;;;5074111;28;20169;-68
2024/01/03 08:37:54;;;;;;;7.73;1.23;;;11.30;99.90;;;;;;5073888;28;20189;-68
2024/01/03 08:40:21;;;;;;;4.73;1.50;;;11.20;99.90;;;;;;5074098;28;20205;-70
2024/01/03 08:42:46;;;;;;;3.13;0.80;;;11.30;99.90;;;;;;5073616;28;20239;-71
2024/01/03 08:45:12;;;;;;;1.33;1.10;;;11.30;99.90;;;;;;5073833;28;20427;-69
2024/01/03 08:47:37;;;;;;;7.23;1.97;;;11.30;99.90;;;;;;5073835;28;20263;-69
2024/01/03 08:50:03;;;;;;;7.20;1.30;;;11.40;99.90;;;;;;5073600;28;20170;-69
2024/01/03 08:52:29;;;;;;;1.73;1.00;;;11.30;99.90;;;;;;5073470;28;20229;-69
2024/01/03 08:54:54;;;;;;;2.47;1.00;;;11.30;99.90;;;;;;5073899;28;20257;-70
2024/01/03 08:57:20;;;;;;;3.13;0.93;;;11.30;99.90;;;;;;5073710;28;20178;-70
2024/01/03 08:59:45;;;;;;;1.43;0.80;;;11.30;99.90;;;;;;5073619;28;20225;-70
2024/01/03 09:02:11;;;;;;;3.63;1.10;;;11.10;99.90;;;;;;5073370;28;20603;-70
2024/01/03 09:04:36;;;;;;;2.53;1.00;;;11.10;99.90;;;;;;5073450;28;20190;-70
2024/01/03 09:07:02;;;;;;;2.10;0.90;;;11.10;99.90;;;;;;5073615;28;20245;-69
2024/01/03 09:09:27;;;;;;;3.87;1.47;;;11.00;99.90;;;;;;5073581;28;20170;-69
2024/01/03 09:11:53;;;;;;;4.70;0.97;;;11.10;99.90;;;;;;5073420;28;20220;-70
2024/01/03 09:14:18;;;;;;;6.03;0.93;;;11.20;99.90;;;;;;5073202;28;20201;-68
2024/01/03 09:16:44;;;;;;;1.33;0.97;;;11.30;99.90;;;;;;5073655;28;20185;-69
2024/01/03 09:19:10;;;;;;;3.10;1.00;;;11.30;99.90;;;;;;5073305;28;20197;-69
2024/01/03 09:21:35;;;;;;;2.40;1.13;;;11.30;99.90;;;;;;5073308;28;20593;-69
2024/01/03 09:24:03;;;;;;;7.50;1.60;;;11.30;99.90;;;;;;5072837;28;20213;-70
2024/01/03 09:26:28;;;;;;;4.03;1.60;;;11.30;99.90;;;;;;5073111;28;20174;-70
2024/01/03 09:28:54;;;;;;;2.80;1.20;;;11.30;99.90;;;;;;5073229;28;20459;-70
2024/01/03 09:31:20;;;;;;;1.97;0.83;;;11.20;99.90;;;;;;5073056;28;20645;-70
2024/01/03 09:33:45;;;;;;;1.63;1.17;;;11.40;99.90;;;;;;5072666;28;20182;-70
2024/01/03 09:36:18;;;;;;;3.17;1.23;;;12.60;99.90;;;;;;5072868;28;20505;-72
2024/01/03 09:38:44;;;;;;;3.10;2.20;;;13.90;99.90;;;;;;5072799;28;20695;-71
2024/01/03 09:41:12;;;;;;;1.20;0.90;;;14.80;99.90;;;;;;5072861;28;20399;-70
2024/01/03 09:43:41;;;;;;;12.90;2.40;;;15.40;99.90;;;;;;5072330;28;20425;-71
2024/01/03 09:46:06;;;;;;;4.70;1.17;;;16.10;99.90;;;;;;5071838;28;20432;-71
2024/01/03 09:48:32;;;;;;;3.50;1.30;;;16.80;99.90;;;;;;5072663;28;20824;-71
2024/01/03 09:51:01;;;;;;;2.10;1.60;;;16.80;99.90;;;;;;5072753;28;20228;-71
2024/01/03 09:53:28;;;;;;;2.33;1.10;;;16.10;99.90;;;;;;5072228;28;20275;-71
2024/01/03 09:55:54;;;;;;;4.43;1.30;;;15.50;99.90;;;;;;5071260;28;20438;-70
2024/01/03 09:58:24;;;;;;;10.87;2.30;;;14.90;99.90;;;;;;5072365;28;20463;-70
2024/01/03 10:00:50;;;;;;;15.20;7.77;;;14.60;99.90;;;;;;5072454;28;20508;-71
2024/01/03 10:03:16;;;;;;;7.83;2.17;;;14.50;99.90;;;;;;5072069;28;20428;-70
2024/01/03 10:05:43;;;;;;;6.50;2.47;;;14.70;99.90;;;;;;5072263;28;20162;-70
2024/01/03 10:08:17;;;;;;;4.50;1.90;;;14.90;99.90;;;;;;5072372;28;20419;-70
2024/01/03 10:10:45;;;;;;;6.93;4.30;;;15.10;99.90;;;;;;5072383;28;20412;-70
2024/01/03 10:13:24;;;;;;;4.50;1.70;;;15.00;99.90;;;;;;5071789;28;20435;-70
2024/01/03 10:15:49;;;;;;;14.47;1.93;;;14.50;99.90;;;;;;5072032;28;20411;-69
2024/01/03 10:18:19;;;;;;;2.70;1.37;;;14.20;99.90;;;;;;5072131;28;20966;-70
2024/01/03 10:20:45;;;;;;;6.53;3.63;;;13.80;99.90;;;;;;5072557;28;20657;-70
2024/01/03 10:23:21;;;;;;;14.83;3.23;;;13.30;99.90;;;;;;5071770;28;20439;-71
2024/01/03 10:25:47;;;;;;;16.70;2.13;;;13.30;99.90;;;;;;5070567;28;20169;-70
2024/01/03 10:28:17;;;;;;;12.50;4.83;;;13.20;99.90;;;;;;5071957;28;20885;-70
2024/01/03 10:30:42;;;;;;;3.80;1.27;;;13.10;99.90;;;;;;5071962;28;20174;-70
2024/01/03 10:33:09;;;;;;;4.70;1.60;;;13.20;99.90;;;;;;5071524;28;21004;-71
2024/01/03 10:35:36;;;;;;;7.10;2.00;;;13.20;99.90;;;;;;5071874;28;20170;-70
2024/01/03 10:38:03;;;;;;;4.83;1.37;;;13.00;99.90;;;;;;5071655;28;20443;-70
2024/01/03 10:40:31;;;;;;;6.33;2.13;;;13.00;99.90;;;;;;5071873;28;20396;-70
2024/01/03 10:42:58;;;;;;;6.60;1.90;;;12.90;99.90;;;;;;5071459;28;20428;-71
2024/01/03 10:45:24;;;;;;;4.97;2.03;;;12.90;99.90;;;;;;5071765;28;20400;-71
2024/01/03 10:47:51;;;;;;;4.20;2.10;;;12.80;99.90;;;;;;5071649;28;20401;-71
2024/01/03 10:50:16;;;;;;;10.53;2.73;;;12.90;99.90;;;;;;5071833;28;20466;-71
2024/01/03 10:52:43;;;;;;;6.20;1.63;;;12.70;99.90;;;;;;5071307;28;20963;-71
2024/01/03 10:55:19;;;;;;;4.10;2.50;;;12.60;99.90;;;;;;5071624;28;20201;-70
2024/01/03 10:57:56;;;;;;;10.33;2.53;;;12.70;99.90;;;;;;5071525;28;20415;-70
2024/01/03 11:00:47;;;;;;;3.97;1.67;;;12.60;99.90;;;;;;5071823;28;20407;-71
2024/01/03 11:03:18;;;;;;;3.77;1.53;;;12.70;99.90;;;;;;5070006;28;20432;-70
2024/01/03 11:06:02;;;;;;;6.10;1.47;;;13.00;99.90;;;;;;5071732;28;20400;-71
2024/01/03 11:08:41;;;;;;;7.40;2.47;;;13.70;99.90;;;;;;5071549;28;20970;-70
2024/01/03 11:11:08;;;;;;;2.80;1.20;;;13.70;99.90;;;;;;5071645;28;20404;-70
2024/01/03 11:13:34;;;;;;;6.27;2.10;;;13.70;99.90;;;;;;5071322;28;20421;-71
2024/01/03 11:16:02;;;;;;;3.53;1.60;;;13.60;99.90;;;;;;5071383;28;20401;-71
2024/01/03 11:18:42;;;;;;;4.17;1.37;;;13.70;99.90;;;;;;5071450;28;20451;-71
2024/01/03 11:21:20;;;;;;;6.13;2.07;;;13.90;99.90;;;;;;5071548;28;20483;-71
2024/01/03 11:23:46;;;;;;;3.77;1.20;;;14.20;99.90;;;;;;5071176;28;20420;-71
2024/01/03 11:26:11;;;;;;;4.97;1.30;;;14.40;99.90;;;;;;5071378;28;20911;-70
2024/01/03 11:28:37;;;;;;;9.67;1.70;;;14.20;99.90;;;;;;5071416;28;20170;-69
2024/01/03 11:31:04;;;;;;;3.47;1.17;;;14.20;99.90;;;;;;5071536;28;20173;-70
2024/01/03 11:33:31;;;;;;;4.60;1.43;;;15.00;99.90;;;;;;5071207;28;20182;-70
2024/01/03 11:35:57;;;;;;;7.00;2.00;;;16.00;99.90;;;;;;5071246;28;20503;-70
2024/01/03 11:38:43;;;;;;;3.37;1.40;;;17.30;99.90;;;;;;5071277;28;20456;-71
2024/01/03 11:41:18;;;;;;;10.07;1.80;;;18.00;99.90;;;;;;5071312;28;20407;-70
2024/01/03 11:43:46;;;;;;;3.77;1.53;;;17.50;99.90;;;;;;5070959;28;20462;-70
2024/01/03 11:46:12;;;;;;;3.90;1.73;;;17.70;99.90;;;;;;5071142;28;20838;-71
2024/01/03 11:48:39;;;;;;;5.10;1.33;;;18.30;99.90;;;;;;5071300;28;20837;-71
2024/01/03 11:51:21;;;;;;;6.80;2.27;;;18.40;99.90;;;;;;5071145;28;20767;-71
2024/01/03 11:53:47;;;;;;;8.00;3.00;;;17.40;99.90;;;;;;5070763;28;20440;-71
2024/01/03 11:56:31;;;;;;;5.13;1.47;;;16.70;99.90;;;;;;5070809;28;20405;-70
2024/01/03 11:58:57;;;;;;;14.57;2.90;;;16.00;99.90;;;;;;5071087;28;20194;-71
2024/01/03 12:01:23;;;;;;;5.17;1.60;;;15.70;99.90;;;;;;5071058;28;20412;-70
2024/01/03 12:03:49;;;;;;;4.57;2.50;;;16.00;99.90;;;;;;5070639;28;21028;-70
2024/01/03 12:06:19;;;;;;;4.60;1.60;;;17.50;99.90;;;;;;5070963;28;20541;-70
2024/01/03 12:08:44;;;;;;;9.53;1.90;;;18.30;99.90;;;;;;5073205;28;20167;-70
2024/01/03 12:11:10;;;;;;;5.63;1.90;;;19.10;99.90;;;;;;5074865;28;20409;-70
2024/01/03 12:13:36;;;;;;;3.13;1.67;;;19.30;96.30;;;;;;5074313;28;20193;-71
2024/01/03 12:16:02;;;;;;;9.43;1.80;;;19.00;93.10;;;;;;5074361;28;20174;-71
2024/01/03 12:18:27;;;;;;;5.27;1.67;;;18.30;93.60;;;;;;5074394;28;20650;-70
2024/01/03 12:20:53;;;;;;;5.70;1.33;;;18.10;94.30;;;;;;5074544;28;20169;-70
2024/01/03 12:23:19;;;;;;;3.20;1.23;;;17.60;95.20;;;;;;5074405;28;20536;-70
2024/01/03 12:25:45;;;;;;;8.17;1.80;;;16.50;96.40;;;;;;5073047;28;20194;-70
2024/01/03 12:28:17;;;;;;;3.60;1.50;;;15.80;99.90;;;;;;5074082;28;20292;-70
2024/01/03 12:30:43;;;;;;;12.40;2.80;;;15.50;99.90;;;;;;5074293;28;20444;-70
2024/01/03 12:33:15;;;;;;;8.57;2.07;;;16.10;99.90;;;;;;5073858;28;20855;-70
2024/01/03 12:35:41;;;;;;;2.40;1.53;;;16.50;99.90;;;;;;5072951;28;20186;-70
2024/01/03 12:38:07;;;;;;;6.43;2.20;;;16.00;99.90;;;;;;5073981;28;20419;-69
2024/01/03 12:40:32;;;;;;;5.10;2.00;;;15.70;99.90;;;;;;5074258;28;20884;-70
2024/01/03 12:42:58;;;;;;;8.30;1.97;;;15.30;99.90;;;;;;5073678;28;20677;-71